15 | 08 | 2022

Daten Vortag

Klimadaten von 10m Höhe gemessen, Station   

Datum / Zeit Intervall min Luftfeuchte % Temperatur °C Absoluter Luftdruck hPa Wind m/s Windböhen m/s Wind Richtung Relative Luftdruck hPa Taupunkt °C Windchill °C Niederschlag mm
14-08-2022 00:11 5 82 17.3 1015.3 0.0 0.0 NW 1019.8 14.2 17.3 0.0
14-08-2022 00:12 5 83 17.2 1015.2 0.0 0.0 SW 1019.7 14.3 17.2 0.0
14-08-2022 00:17 5 83 17.1 1015.4 0.0 0.0 SW 1019.9 14.2 17.1 0.0
14-08-2022 00:24 5 84 17.0 1015.2 0.0 0.0 SW 1019.7 14.3 17.0 0.0
14-08-2022 00:29 5 84 16.8 1015.1 0.0 0.0 SW 1019.6 14.1 16.8 0.0
14-08-2022 00:34 5 85 16.8 1015.1 0.0 0.0 SW 1019.6 14.3 16.8 0.0
14-08-2022 00:39 5 85 16.6 1014.9 0.0 0.0 SW 1019.4 14.1 16.6 0.0
14-08-2022 00:44 5 86 16.5 1014.9 0.0 0.0 SW 1019.4 14.2 16.5 0.0
14-08-2022 00:49 5 86 16.3 1014.8 0.0 0.0 SW 1019.3 14.0 16.3 0.0
14-08-2022 00:54 5 87 16.1 1014.9 0.0 0.0 SW 1019.4 14.0 16.1 0.0
14-08-2022 00:59 5 87 16.0 1014.7 0.0 0.0 SW 1019.2 13.9 16.0 0.0
14-08-2022 01:04 5 87 15.9 1014.8 0.0 0.0 SW 1019.3 13.8 15.9 0.0
14-08-2022 01:09 5 89 16.0 1014.8 0.0 0.0 SW 1019.3 14.2 16.0 0.0
14-08-2022 01:14 5 90 16.1 1014.8 0.0 0.0 SW 1019.3 14.5 16.1 0.0
14-08-2022 01:19 5 90 16.0 1014.7 0.0 0.0 SW 1019.2 14.4 16.0 0.0
14-08-2022 01:24 5 90 15.8 1014.7 0.0 0.0 SW 1019.2 14.2 15.8 0.0
14-08-2022 01:29 5 90 15.7 1014.7 0.0 0.0 SW 1019.2 14.1 15.7 0.0
14-08-2022 01:34 5 90 15.6 1014.5 0.0 0.0 SW 1019.0 14.0 15.6 0.0
14-08-2022 01:39 5 90 15.5 1014.6 0.0 0.0 SW 1019.1 13.9 15.5 0.0
14-08-2022 01:44 5 90 15.4 1014.3 0.0 0.0 SW 1018.8 13.8 15.4 0.0
14-08-2022 01:49 5 90 15.3 1014.2 0.0 0.0 SW 1018.7 13.7 15.3 0.0
14-08-2022 01:54 5 91 15.2 1014.3 0.0 0.0 SW 1018.8 13.8 15.2 0.0
14-08-2022 01:59 5 91 15.1 1014.1 0.0 0.0 SW 1018.6 13.7 15.1 0.0
14-08-2022 02:04 5 91 15.2 1014.0 0.0 0.0 SW 1018.5 13.8 15.2 0.0
14-08-2022 02:09 5 92 15.2 1014.0 0.0 0.0 SW 1018.5 13.9 15.2 0.0
14-08-2022 02:14 5 92 15.2 1014.0 0.0 0.0 SW 1018.5 13.9 15.2 0.0
14-08-2022 02:19 5 92 15.1 1014.1 0.0 0.0 SW 1018.6 13.8 15.1 0.0
14-08-2022 02:24 5 93 15.0 1014.1 0.0 0.0 SW 1018.6 13.9 15.0 0.0
14-08-2022 02:29 5 94 15.1 1013.9 0.0 0.0 SW 1018.4 14.2 15.1 0.0
14-08-2022 02:34 5 94 15.2 1014.0 0.0 0.0 SW 1018.5 14.3 15.2 0.0
14-08-2022 02:39 5 94 15.1 1013.9 0.0 0.0 SW 1018.4 14.2 15.1 0.0
14-08-2022 02:44 5 94 15.1 1013.7 0.0 0.0 SE 1018.2 14.2 15.1 0.0
14-08-2022 02:49 5 95 15.0 1013.6 0.0 0.0 SE 1018.1 14.2 15.0 0.0
14-08-2022 02:54 5 95 15.1 1013.7 0.0 0.0 W 1018.2 14.3 15.1 0.0
14-08-2022 02:59 5 95 15.0 1013.5 0.0 0.0 W 1018.0 14.2 15.0 0.0
14-08-2022 03:04 5 95 15.0 1013.5 0.0 0.0 SE 1018.0 14.2 15.0 0.0
14-08-2022 03:09 5 96 15.1 1013.4 0.0 0.0 NW 1017.9 14.5 15.1 0.0
14-08-2022 03:14 5 97 15.1 1013.2 0.0 0.0 W 1017.7 14.6 15.1 0.0
14-08-2022 03:19 5 97 15.1 1013.6 0.0 0.0 W 1018.1 14.6 15.1 0.0
14-08-2022 03:24 5 97 15.0 1013.5 0.0 0.0 W 1018.0 14.5 15.0 0.0
14-08-2022 03:29 5 97 15.0 1013.6 0.0 0.0 S 1018.1 14.5 15.0 0.0
14-08-2022 03:34 5 97 15.0 1013.6 0.0 1.1 SE 1018.1 14.5 15.0 0.0
14-08-2022 03:39 5 98 15.1 1013.5 0.0 0.0 SE 1018.0 14.8 15.1 0.0
14-08-2022 03:44 5 98 15.1 1013.3 0.0 0.0 S 1017.8 14.8 15.1 0.0
14-08-2022 03:49 5 98 15.0 1013.3 0.0 0.0 S 1017.8 14.7 15.0 0.0
14-08-2022 03:54 5 98 14.8 1013.3 1.1 2.5 S 1017.8 14.5 14.8 0.0
14-08-2022 03:59 5 98 14.8 1013.1 1.1 2.5 S 1017.6 14.5 14.8 0.0
14-08-2022 04:04 5 99 14.8 1013.3 0.0 0.0 S 1017.8 14.7 14.8 0.0
14-08-2022 04:09 5 99 14.8 1013.4 0.0 0.0 S 1017.9 14.7 14.8 0.0
14-08-2022 04:14 5 99 14.9 1013.6 0.0 0.0 S 1018.1 14.8 14.9 0.0
14-08-2022 04:19 5 99 14.8 1013.2 0.0 0.0 S 1017.7 14.7 14.8 0.0
14-08-2022 04:24 5 99 14.7 1013.2 0.0 0.0 SE 1017.7 14.6 14.7 0.0
14-08-2022 04:29 5 99 14.7 1013.1 0.0 0.0 SE 1017.6 14.6 14.7 0.0
14-08-2022 04:34 5 99 14.6 1012.9 0.0 0.0 SE 1017.4 14.5 14.6 0.0
14-08-2022 04:39 5 99 14.4 1013.2 0.0 0.0 SE 1017.7 14.3 14.4 0.0
14-08-2022 04:44 5 99 14.2 1013.0 0.0 0.0 S 1017.5 14.1 14.2 0.0
14-08-2022 04:49 5 99 14.0 1013.1 0.0 0.0 S 1017.6 13.9 14.0 0.0
14-08-2022 04:54 5 99 13.9 1013.1 0.0 0.0 S 1017.6 13.8 13.9 0.0
14-08-2022 04:59 5 98 13.8 1012.9 0.0 0.0 S 1017.4 13.5 13.8 0.0
14-08-2022 05:04 5 99 13.9 1013.2 0.0 0.0 SE 1017.7 13.8 13.9 0.0
14-08-2022 05:09 5 99 14.1 1012.9 0.0 0.0 S 1017.4 14.0 14.1 0.0
14-08-2022 05:14 5 99 14.1 1013.0 0.0 0.0 S 1017.5 14.0 14.1 0.0
14-08-2022 05:19 5 99 14.0 1012.7 0.0 0.0 S 1017.2 13.9 14.0 0.0
14-08-2022 05:24 5 99 13.9 1012.9 0.0 0.0 S 1017.4 13.8 13.9 0.0
14-08-2022 05:29 5 99 14.0 1012.7 0.0 0.0 S 1017.2 13.9 14.0 0.0
14-08-2022 05:34 5 99 14.0 1012.5 0.0 0.0 S 1017.0 13.9 14.0 0.0
14-08-2022 05:39 5 99 13.9 1012.6 0.0 0.0 S 1017.1 13.8 13.9 0.0
14-08-2022 05:44 5 99 13.8 1012.7 0.0 0.0 S 1017.2 13.7 13.8 0.0
14-08-2022 05:49 5 99 13.8 1012.6 0.0 0.0 S 1017.1 13.7 13.8 0.0
14-08-2022 05:54 5 99 13.8 1012.4 0.0 0.0 S 1016.9 13.7 13.8 0.0
14-08-2022 05:59 5 99 13.7 1012.4 0.0 0.0 S 1016.9 13.6 13.7 0.0
14-08-2022 06:04 5 99 13.8 1012.6 0.0 0.0 S 1017.1 13.7 13.8 0.0
14-08-2022 06:09 5 99 13.9 1012.5 0.0 0.0 S 1017.0 13.8 13.9 0.0
14-08-2022 06:14 5 99 14.0 1012.2 0.0 0.0 S 1016.7 13.9 14.0 0.0
14-08-2022 06:19 5 99 14.0 1012.4 0.0 0.0 S 1016.9 13.9 14.0 0.0
14-08-2022 06:24 5 99 14.1 1012.3 0.0 0.0 S 1016.8 14.0 14.1 0.0
14-08-2022 06:29 5 99 14.4 1012.4 0.0 0.0 S 1016.9 14.3 14.4 0.0
14-08-2022 06:34 5 99 14.5 1012.6 0.0 0.0 S 1017.1 14.4 14.5 0.0
14-08-2022 06:39 5 99 14.6 1012.4 0.0 0.0 S 1016.9 14.5 14.6 0.0
14-08-2022 06:44 5 99 14.6 1012.4 0.0 0.0 SE 1016.9 14.5 14.6 0.0
14-08-2022 06:49 5 99 14.7 1012.4 0.0 0.0 S 1016.9 14.6 14.7 0.0
14-08-2022 06:54 5 99 14.8 1012.1 0.0 0.0 S 1016.6 14.7 14.8 0.0
14-08-2022 06:59 5 99 14.8 1012.3 0.0 0.0 S 1016.8 14.7 14.8 0.0
14-08-2022 07:04 5 99 15.0 1012.2 0.0 0.0 S 1016.7 14.9 15.0 0.0
14-08-2022 07:09 5 99 15.2 1012.3 0.0 0.0 S 1016.8 15.1 15.2 0.0
14-08-2022 07:14 5 99 15.3 1012.3 0.0 0.0 S 1016.8 15.2 15.3 0.0
14-08-2022 07:19 5 99 15.5 1012.3 0.0 0.0 S 1016.8 15.4 15.5 0.0
14-08-2022 07:24 5 99 15.8 1012.4 0.0 0.0 S 1016.9 15.7 15.8 0.0
14-08-2022 07:29 5 99 16.4 1012.4 0.0 0.0 S 1016.9 16.3 16.4 0.0
14-08-2022 07:34 5 99 17.3 1012.3 0.0 0.0 S 1016.8 17.2 17.3 0.0
14-08-2022 07:39 5 99 18.6 1012.0 0.0 0.0 SE 1016.5 18.5 18.6 0.0
14-08-2022 07:44 5 99 19.8 1012.3 0.0 0.0 SE 1016.8 19.7 19.8 0.0
14-08-2022 07:49 5 99 20.9 1012.4 0.0 0.0 SE 1016.9 20.8 20.9 0.0
14-08-2022 07:54 5 99 21.9 1012.2 0.0 0.0 SE 1016.7 21.8 21.9 0.0
14-08-2022 07:59 5 88 22.5 1012.0 0.0 1.1 N 1016.5 20.4 22.5 0.0
14-08-2022 08:04 5 82 22.5 1012.1 0.0 0.0 NE 1016.6 19.3 22.5 0.0
14-08-2022 08:09 5 76 22.8 1012.1 0.0 0.0 E 1016.6 18.4 22.8 0.0
14-08-2022 08:14 5 74 22.9 1012.0 0.0 0.0 NE 1016.5 18.0 22.9 0.0
14-08-2022 08:19 5 73 23.0 1011.9 1.1 1.1 N 1016.4 17.9 23.0 0.0
14-08-2022 08:24 5 73 23.2 1012.1 0.0 1.1 N 1016.6 18.1 23.2 0.0
14-08-2022 08:29 5 72 23.5 1012.1 0.0 1.1 W 1016.6 18.2 23.5 0.0
14-08-2022 08:34 5 72 23.7 1011.9 0.0 1.1 SE 1016.4 18.4 23.7 0.0
14-08-2022 08:39 5 71 24.1 1011.7 1.1 2.5 SW 1016.2 18.5 24.1 0.0
14-08-2022 08:44 5 71 24.4 1012.1 0.0 1.1 E 1016.6 18.8 24.4 0.0
14-08-2022 08:49 5 70 24.8 1011.8 1.1 1.1 NW 1016.3 19.0 24.8 0.0
14-08-2022 08:54 5 69 25.1 1011.9 2.5 5.0 SE 1016.4 19.0 25.1 0.0
14-08-2022 08:59 5 68 25.2 1012.0 0.0 1.1 NEE 1016.5 18.9 25.2 0.0
14-08-2022 09:04 5 67 25.4 1011.9 1.1 3.6 E 1016.4 18.9 25.4 0.0
14-08-2022 09:09 5 67 25.4 1011.7 2.5 5.0 N 1016.2 18.9 25.4 0.0
14-08-2022 09:14 5 67 25.4 1011.3 2.5 3.6 E 1015.8 18.9 25.4 0.0
14-08-2022 09:19 5 67 25.6 1011.3 3.6 5.0 NE 1015.8 19.0 25.6 0.0
14-08-2022 09:24 5 66 25.6 1011.8 2.5 6.1 SE 1016.3 18.8 25.6 0.0
14-08-2022 09:29 5 66 25.8 1011.5 1.1 2.5 N 1016.0 19.0 25.8 0.0
14-08-2022 09:34 5 64 26.2 1011.5 2.5 5.0 S 1016.0 18.9 26.2 0.0
14-08-2022 09:39 5 64 26.3 1011.5 5.0 6.1 NE 1016.0 19.0 26.3 0.0
14-08-2022 09:44 5 64 26.2 1011.5 3.6 6.1 SE 1016.0 18.9 26.2 0.0
14-08-2022 09:49 5 65 26.7 1011.7 2.5 3.6 NE 1016.2 19.6 26.7 0.0
14-08-2022 09:54 5 63 27.2 1011.7 5.0 6.1 NE 1016.2 19.6 27.2 0.0
14-08-2022 09:59 5 62 27.4 1011.5 5.0 7.2 N 1016.0 19.5 27.4 0.0
14-08-2022 10:04 5 61 27.4 1011.6 2.5 5.0 NE 1016.1 19.2 27.4 0.0
14-08-2022 10:09 5 59 27.5 1011.4 3.6 5.0 E 1015.9 18.8 27.5 0.0
14-08-2022 10:14 5 62 27.4 1011.5 2.5 5.0 E 1016.0 19.5 27.4 0.0
14-08-2022 10:19 5 59 27.8 1011.5 2.5 2.5 N 1016.0 19.1 27.8 0.0
14-08-2022 10:24 5 57 28.2 1011.4 2.5 3.6 NE 1015.9 18.9 28.2 0.0
14-08-2022 10:29 5 54 28.3 1011.6 5.0 7.2 E 1016.1 18.1 28.3 0.0
14-08-2022 10:34 5 55 28.1 1011.2 5.0 7.2 E 1015.7 18.2 28.1 0.0
14-08-2022 10:39 5 54 28.3 1011.3 5.0 7.2 NW 1015.8 18.1 28.3 0.0
14-08-2022 10:44 5 53 28.5 1011.4 3.6 6.1 NNW 1015.9 18.0 28.5 0.0
14-08-2022 10:49 5 52 28.4 1011.2 5.0 8.6 E 1015.7 17.6 28.4 0.0
14-08-2022 10:54 5 52 28.5 1011.2 5.0 6.1 SSW 1015.7 17.7 28.5 0.0
14-08-2022 10:59 5 51 28.8 1011.1 2.5 5.0 E 1015.6 17.7 28.8 0.0
14-08-2022 11:04 5 50 28.6 1011.1 5.0 9.7 NE 1015.6 17.2 28.6 0.0
14-08-2022 11:09 5 51 28.9 1011.2 2.5 3.6 SE 1015.7 17.8 28.9 0.0
14-08-2022 11:14 5 50 29.1 1011.2 3.6 7.2 E 1015.7 17.7 29.1 0.0
14-08-2022 11:19 5 50 29.3 1011.3 5.0 7.2 SW 1015.8 17.8 29.3 0.0
14-08-2022 11:24 5 49 29.6 1011.3 5.0 8.6 E 1015.8 17.8 29.6 0.0
14-08-2022 11:29 5 49 29.5 1011.0 3.6 5.0 SE 1015.5 17.7 29.5 0.0
14-08-2022 11:34 5 49 30.1 1011.2 3.6 5.0 SE 1015.7 18.2 30.1 0.0
14-08-2022 11:39 5 47 30.1 1010.9 3.6 5.0 E 1015.4 17.6 30.1 0.0
14-08-2022 11:44 5 46 30.2 1011.2 3.6 5.0 NE 1015.7 17.3 30.2 0.0
14-08-2022 11:49 5 47 30.1 1011.1 5.0 7.2 SEE 1015.6 17.6 30.1 0.0
14-08-2022 11:54 5 48 30.4 1010.8 6.1 9.7 E 1015.3 18.2 30.4 0.0
14-08-2022 11:59 5 44 30.3 1010.9 7.2 9.7 NE 1015.4 16.7 30.2 0.0
14-08-2022 12:04 5 44 30.3 1011.0 3.6 6.1 SE 1015.5 16.7 30.3 0.0
14-08-2022 12:09 5 43 30.4 1010.9 8.6 12.2 E 1015.4 16.5 30.2 0.0
14-08-2022 12:14 5 43 30.4 1010.7 5.0 6.1 SE 1015.2 16.5 30.4 0.0
14-08-2022 12:19 5 44 30.4 1010.9 3.6 6.1 NW 1015.4 16.8 30.4 0.0
14-08-2022 12:24 5 44 30.5 1010.5 5.0 8.6 N 1015.0 16.9 30.5 0.0
14-08-2022 12:29 5 44 31.0 1010.6 2.5 3.6 SSE 1015.1 17.4 31.0 0.0
14-08-2022 12:34 5 43 31.2 1010.7 5.0 8.6 SE 1015.2 17.2 31.2 0.0
14-08-2022 12:39 5 43 31.6 1010.7 3.6 6.1 SE 1015.2 17.5 31.6 0.0
14-08-2022 12:46 5 43 32.1 1010.5 5.0 7.2 E 1015.0 18.0 32.1 0.0
14-08-2022 12:51 5 40 32.1 1010.4 5.0 8.6 NW 1014.9 16.8 32.1 0.0
14-08-2022 12:56 5 40 31.6 1010.3 3.6 8.6 NW 1014.8 16.4 31.6 0.0
14-08-2022 13:01 5 42 31.7 1010.0 6.1 11.2 E 1014.5 17.3 31.7 0.0
14-08-2022 13:06 5 40 31.6 1010.2 6.1 8.6 NE 1014.7 16.4 31.6 0.0
14-08-2022 13:11 5 41 31.3 1010.1 2.5 3.6 E 1014.6 16.5 31.3 0.0
14-08-2022 13:16 5 40 31.6 1010.1 3.6 7.2 NE 1014.6 16.4 31.6 0.0
14-08-2022 13:21 5 37 31.2 1010.1 8.6 12.2 E 1014.6 14.8 31.0 0.0
14-08-2022 13:26 5 37 31.4 1009.9 7.2 13.3 E 1014.4 15.0 31.3 0.0
14-08-2022 13:31 5 40 31.8 1009.9 2.5 5.0 E 1014.4 16.6 31.8 0.0
14-08-2022 13:36 5 40 31.7 1009.9 7.2 9.7 SE 1014.4 16.5 31.6 0.0
14-08-2022 13:41 5 41 32.0 1010.0 3.6 7.2 N 1014.5 17.1 32.0 0.0
14-08-2022 13:46 5 40 31.9 1009.7 6.1 8.6 N 1014.2 16.7 31.9 0.0
14-08-2022 13:51 5 41 31.9 1009.8 6.1 9.7 E 1014.3 17.0 31.9 0.0
14-08-2022 13:56 5 40 31.8 1009.7 7.2 11.2 E 1014.2 16.6 31.7 0.0
14-08-2022 14:01 5 38 31.9 1009.7 5.0 8.6 SE 1014.2 15.9 31.9 0.0
14-08-2022 14:06 5 40 32.0 1009.7 3.6 5.0 E 1014.2 16.7 32.0 0.0
14-08-2022 14:11 5 40 32.1 1009.7 5.0 7.2 NE 1014.2 16.8 32.1 0.0
14-08-2022 14:16 5 41 32.1 1009.5 5.0 8.6 S 1014.0 17.2 32.1 0.0
14-08-2022 14:21 5 38 32.6 1009.6 3.6 5.0 SE 1014.1 16.5 32.6 0.0
14-08-2022 14:26 5 36 32.7 1009.6 3.6 6.1 E 1014.1 15.7 32.7 0.0
14-08-2022 14:31 5 34 32.6 1009.6 8.6 11.2 S 1014.1 14.7 32.6 0.0
14-08-2022 14:36 5 38 32.2 1009.4 6.1 12.2 E 1013.9 16.1 32.2 0.0
14-08-2022 14:41 5 41 32.4 1009.1 3.6 6.1 E 1013.6 17.5 32.4 0.0
14-08-2022 14:46 5 34 32.7 1009.0 5.0 7.2 E 1013.5 14.8 32.7 0.0
14-08-2022 14:51 5 34 32.6 1009.1 6.1 8.6 SE 1013.6 14.7 32.6 0.0
14-08-2022 14:56 5 33 32.9 1009.2 7.2 12.2 E 1013.7 14.5 32.9 0.0
14-08-2022 15:01 5 34 32.8 1009.2 3.6 6.1 E 1013.7 14.9 32.8 0.0
14-08-2022 15:06 5 34 32.7 1009.2 5.0 8.6 SE 1013.7 14.8 32.7 0.0
14-08-2022 15:11 5 34 32.8 1009.1 9.7 12.2 SE 1013.6 14.9 32.8 0.0
14-08-2022 15:16 5 34 32.9 1008.8 3.6 6.1 N 1013.3 15.0 32.9 0.0
14-08-2022 15:21 5 35 33.2 1008.7 3.6 5.0 SWW 1013.2 15.7 33.2 0.0
14-08-2022 15:26 5 33 33.2 1008.7 6.1 8.6 E 1013.2 14.8 33.2 0.0
14-08-2022 15:31 5 33 33.1 1008.8 2.5 5.0 NE 1013.3 14.7 33.1 0.0
14-08-2022 15:36 5 32 32.7 1008.5 2.5 5.0 NE 1013.0 13.9 32.7 0.0
14-08-2022 15:41 5 37 32.3 1008.7 3.6 6.1 E 1013.2 15.8 32.3 0.0
14-08-2022 15:46 5 38 32.1 1008.7 2.5 3.6 W 1013.2 16.0 32.1 0.0
14-08-2022 15:51 5 37 32.0 1008.4 7.2 11.2 E 1012.9 15.5 32.0 0.0
14-08-2022 15:56 5 39 31.6 1008.3 5.0 7.2 E 1012.8 16.0 31.6 0.0
14-08-2022 16:01 5 39 31.5 1008.4 9.7 12.2 NE 1012.9 15.9 31.3 0.0
14-08-2022 16:06 5 38 31.6 1008.5 6.1 11.2 E 1013.0 15.6 31.6 0.0
14-08-2022 16:11 5 36 31.7 1008.4 5.0 7.2 E 1012.9 14.8 31.7 0.0
14-08-2022 16:16 5 37 31.5 1008.3 2.5 3.6 SE 1012.8 15.1 31.5 0.0
14-08-2022 16:21 5 37 31.5 1008.3 6.1 11.2 N 1012.8 15.1 31.5 0.0
14-08-2022 16:26 5 37 31.5 1008.2 3.6 6.1 E 1012.7 15.1 31.5 0.0
14-08-2022 16:31 5 38 31.3 1008.6 5.0 7.2 SE 1013.1 15.3 31.3 0.0
14-08-2022 16:36 5 39 31.2 1008.1 5.0 8.6 E 1012.6 15.6 31.2 0.0
14-08-2022 16:41 5 41 31.0 1008.2 8.6 14.8 E 1012.7 16.2 30.8 0.0
14-08-2022 16:46 5 43 30.6 1008.1 6.1 8.6 E 1012.6 16.6 30.6 0.0
14-08-2022 16:51 5 43 30.4 1008.1 6.1 9.7 S 1012.6 16.5 30.4 0.0
14-08-2022 16:56 5 44 30.1 1008.1 5.0 7.2 E 1012.6 16.5 30.1 0.0
14-08-2022 17:01 5 45 30.1 1008.1 6.1 8.6 N 1012.6 16.9 30.1 0.0
14-08-2022 17:06 5 45 30.2 1007.9 3.6 6.1 SEE 1012.4 17.0 30.2 0.0
14-08-2022 17:11 5 44 30.0 1007.8 7.2 9.7 NE 1012.3 16.5 29.9 0.0
14-08-2022 17:16 5 44 29.5 1007.9 8.6 12.2 E 1012.4 16.0 29.2 0.0
14-08-2022 17:21 5 45 29.5 1008.0 5.0 7.2 NE 1012.5 16.4 29.5 0.0
14-08-2022 17:26 5 44 29.4 1007.9 6.1 8.6 NE 1012.4 15.9 29.4 0.0
14-08-2022 17:31 5 44 29.2 1007.9 6.1 9.7 N 1012.4 15.7 29.2 0.0
14-08-2022 17:36 5 44 29.0 1008.3 6.1 8.6 NWW 1012.8 15.5 29.0 0.0
14-08-2022 17:41 5 44 28.8 1007.9 5.0 9.7 SE 1012.4 15.4 28.8 0.0
14-08-2022 17:46 5 42 28.6 1007.8 7.2 11.2 N 1012.3 14.5 28.4 0.0
14-08-2022 17:51 5 43 28.5 1007.9 3.6 6.1 E 1012.4 14.7 28.5 0.0
14-08-2022 17:56 5 42 28.3 1007.9 7.2 9.7 W 1012.4 14.2 28.1 0.0
14-08-2022 18:01 5 41 28.3 1007.8 5.0 6.1 N 1012.3 13.8 28.3 0.0
14-08-2022 18:06 5 41 28.4 1007.6 2.5 5.0 NE 1012.1 13.9 28.4 0.0
14-08-2022 18:11 5 39 29.1 1007.8 7.2 11.2 NW 1012.3 13.8 28.9 0.0
14-08-2022 18:16 5 36 29.0 1007.9 3.6 5.0 N 1012.4 12.5 29.0 0.0
14-08-2022 18:21 5 39 29.0 1007.8 3.6 6.1 NE 1012.3 13.7 29.0 0.0
14-08-2022 18:26 5 40 28.6 1007.6 3.6 6.1 NE 1012.1 13.7 28.6 0.0
14-08-2022 18:31 5 41 28.4 1007.7 5.0 11.2 E 1012.2 13.9 28.4 0.0
14-08-2022 18:36 5 42 27.9 1007.6 5.0 7.2 E 1012.1 13.8 27.9 0.0
14-08-2022 18:41 5 42 27.6 1007.7 6.1 11.2 E 1012.2 13.6 27.6 0.0
14-08-2022 18:46 5 47 27.3 1007.5 5.0 6.1 E 1012.0 15.0 27.3 0.0
14-08-2022 18:51 5 48 27.1 1007.4 3.6 6.1 E 1011.9 15.2 27.1 0.0
14-08-2022 18:56 5 49 26.8 1007.6 5.0 7.2 E 1012.1 15.2 26.8 0.0
14-08-2022 19:01 5 50 26.7 1007.3 2.5 8.6 E 1011.8 15.4 26.7 0.0
14-08-2022 19:06 5 49 26.9 1007.3 5.0 7.2 N 1011.8 15.3 26.9 0.0
14-08-2022 19:11 5 49 27.2 1007.5 5.0 8.6 E 1012.0 15.6 27.2 0.0
14-08-2022 19:16 5 48 27.4 1007.4 5.0 8.6 E 1011.9 15.5 27.4 0.0
14-08-2022 19:21 5 48 27.4 1007.3 3.6 7.2 E 1011.8 15.5 27.4 0.0
14-08-2022 19:26 5 44 27.5 1007.1 2.5 3.6 SE 1011.6 14.2 27.5 0.0
14-08-2022 19:31 5 45 27.6 1007.5 1.1 2.5 E 1012.0 14.6 27.6 0.0
14-08-2022 19:36 5 45 27.7 1007.3 1.1 2.5 SE 1011.8 14.7 27.7 0.0
14-08-2022 19:41 5 44 27.7 1007.3 1.1 3.6 S 1011.8 14.4 27.7 0.0
14-08-2022 19:46 5 44 27.7 1007.1 2.5 3.6 SE 1011.6 14.4 27.7 0.0
14-08-2022 19:51 5 50 27.4 1007.1 3.6 5.0 E 1011.6 16.1 27.4 0.0
14-08-2022 19:56 5 50 27.1 1007.5 2.5 3.6 E 1012.0 15.8 27.1 0.0
14-08-2022 20:01 5 51 26.9 1007.4 2.5 3.6 N 1011.9 15.9 26.9 0.0
14-08-2022 20:06 5 51 26.5 1007.2 1.1 2.5 E 1011.7 15.6 26.5 0.0
14-08-2022 20:11 5 52 25.7 1007.3 0.0 1.1 SW 1011.8 15.1 25.7 0.0
14-08-2022 20:16 5 53 25.2 1007.5 2.5 5.0 E 1012.0 15.0 25.2 0.0
14-08-2022 20:21 5 54 24.8 1007.5 1.1 2.5 E 1012.0 14.9 24.8 0.0
14-08-2022 20:26 5 55 24.5 1007.5 0.0 2.5 NE 1012.0 14.9 24.5 0.0
14-08-2022 20:31 5 56 24.2 1007.3 1.1 2.5 NEE 1011.8 14.9 24.2 0.0
14-08-2022 20:36 5 58 23.9 1007.3 2.5 3.6 SWW 1011.8 15.2 23.9 0.0
14-08-2022 20:41 5 58 23.5 1007.1 1.1 5.0 E 1011.6 14.8 23.5 0.0
14-08-2022 20:46 5 60 23.3 1007.1 2.5 3.6 E 1011.6 15.1 23.3 0.0
14-08-2022 20:51 5 60 23.0 1007.3 0.0 0.0 E 1011.8 14.8 23.0 0.0
14-08-2022 20:56 5 61 22.9 1007.1 0.0 1.1 NW 1011.6 15.0 22.9 0.0
14-08-2022 21:01 5 61 22.6 1007.2 0.0 2.5 NE 1011.7 14.7 22.6 0.0
14-08-2022 21:06 5 61 22.6 1007.2 1.1 2.5 SW 1011.7 14.7 22.6 0.0
14-08-2022 21:11 5 64 22.3 1007.2 0.0 0.0 W 1011.7 15.2 22.3 0.0
14-08-2022 21:16 5 65 22.1 1007.5 0.0 0.0 S 1012.0 15.2 22.1 0.0
14-08-2022 21:21 5 65 21.6 1007.4 0.0 0.0 SW 1011.9 14.8 21.6 0.0
14-08-2022 21:26 5 67 21.2 1007.2 0.0 1.1 SE 1011.7 14.9 21.2 0.0
14-08-2022 21:31 5 69 20.9 1007.4 0.0 0.0 NE 1011.9 15.0 20.9 0.0
14-08-2022 21:36 5 70 20.8 1007.5 1.1 2.5 SW 1012.0 15.2 20.8 0.0
14-08-2022 21:41 5 71 20.7 1007.5 1.1 2.5 E 1012.0 15.3 20.7 0.0
14-08-2022 21:46 5 73 20.7 1007.4 2.5 3.6 SSW 1011.9 15.7 20.7 0.0
14-08-2022 21:51 5 73 20.8 1007.2 3.6 6.1 E 1011.7 15.8 20.8 0.0
14-08-2022 21:56 5 73 21.0 1007.3 0.0 0.0 E 1011.8 16.0 21.0 0.0
14-08-2022 22:01 5 73 20.9 1007.3 2.5 3.6 NE 1011.8 15.9 20.9 0.0
14-08-2022 22:06 5 74 20.9 1007.3 0.0 0.0 N 1011.8 16.1 20.9 0.0
14-08-2022 22:11 5 75 20.3 1007.3 0.0 2.5 NE 1011.8 15.7 20.3 0.0
14-08-2022 22:16 5 76 20.3 1007.2 0.0 0.0 E 1011.7 16.0 20.3 0.0
14-08-2022 22:21 5 77 20.5 1007.4 2.5 3.6 E 1011.9 16.4 20.5 0.0
14-08-2022 22:26 5 77 20.2 1007.0 0.0 0.0 E 1011.5 16.1 20.2 0.0
14-08-2022 22:31 5 77 20.0 1006.8 0.0 0.0 SE 1011.3 15.9 20.0 0.0
14-08-2022 22:36 5 77 20.1 1006.9 1.1 2.5 NW 1011.4 16.0 20.1 0.0
14-08-2022 22:41 5 78 19.7 1007.2 0.0 1.1 SW 1011.7 15.8 19.7 0.0
14-08-2022 22:46 5 79 19.6 1007.2 0.0 0.0 SW 1011.7 15.9 19.6 0.0
14-08-2022 22:51 5 80 19.5 1007.1 0.0 0.0 SW 1011.6 16.0 19.5 0.0
14-08-2022 22:56 5 81 19.5 1007.0 0.0 0.0 SW 1011.5 16.2 19.5 0.0
14-08-2022 23:01 5 81 19.1 1007.0 0.0 0.0 W 1011.5 15.8 19.1 0.0
14-08-2022 23:06 5 81 18.9 1006.7 0.0 0.0 W 1011.2 15.6 18.9 0.0
14-08-2022 23:11 5 81 18.5 1006.9 0.0 0.0 W 1011.4 15.2 18.5 0.0
14-08-2022 23:16 5 81 18.3 1006.7 0.0 0.0 W 1011.2 15.0 18.3 0.0
14-08-2022 23:21 5 81 17.9 1006.7 0.0 0.0 W 1011.2 14.6 17.9 0.0
14-08-2022 23:26 5 82 17.7 1006.5 0.0 0.0 SE 1011.0 14.6 17.7 0.0
14-08-2022 23:31 5 83 17.5 1006.4 0.0 0.0 SE 1010.9 14.6 17.5 0.0
14-08-2022 23:36 5 84 17.6 1006.7 0.0 0.0 SW 1011.2 14.9 17.6 0.0
14-08-2022 23:41 5 89 17.4 1006.5 0.0 0.0 SW 1011.0 15.6 17.4 0.0
14-08-2022 23:46 5 87 17.5 1006.4 0.0 0.0 W 1010.9 15.3 17.5 0.0
14-08-2022 23:51 5 91 17.4 1006.5 0.0 0.0 W 1011.0 15.9 17.4 0.0
14-08-2022 23:56 5 91 17.2 1006.6 0.0 0.0 W 1011.1 15.7 17.2 0.0

 

Tagesdaten                                                                       Tabelle: 08:00  UHR

STATIONHÖHELUFTD.TEMP.T-MinT-MaxU%RR1RR12SSSDDFFFXWetter+WolkenBöen
UFS TW Ems 0 ------ --- --- --- --- ---- --- --- -- --- --- --- ---
UFS Deutsche Bucht 0 ------ --- --- --- --- ---- --- --- -- --- --- --- ---
Helgoland 4 1013.2 21.2 20.9 23.3 82 0.0 0 --- O 19 24 --- ---
List/Sylt 26 1014.4 20.8 20.3 23.9 82 0.0 0 0 O 17 27 --- ---
Schleswig 43 1014.5 20.9 18.7 25.7 81 0.0 0 0 NO 10 17 --- ---
Leuchtturm Kiel 5 1014.5 20.6 20.6 24.0 88 ---- --- --- O 30 34 --- ---
Kiel 27 1014.2 21.2 18.3 25.3 80 0.0 0 0 O 17 25 wolkenlos ---
Fehmarn 3 1015.0 21.0 18.3 23.0 87 0.0 0 0 O 19 29 wolkenlos ---
Arkona 42 1015.9 21.6 19.9 21.6 78 0.0 0 0 O 27 37 wolkenlos ---
Norderney 11 1012.3 20.6 20.4 23.7 77 0.0 0 0 SO 10 19 --- ---
Leuchtt. Alte Weser 32 1012.4 21.6 21.6 26.1 75 ---- --- --- O 25 --- --- ---
Cuxhaven 5 1013.2 21.3 21.2 25.9 76 0.0 0 0 O 19 30 --- ---
Hamburg-Flh. 11 1013.8 21.3 19.4 26.8 70 0.0 0 0 O 14 18 --- ---
Schwerin 59 1014.1 19.9 18.4 27.4 79 0.0 0 0 O 8 14 --- ---
Rostock 4 1014.7 20.2 18.6 23.1 82 0.0 0 0 O 8 13 wolkenlos ---
Greifswald 2 1015.2 21.1 17.0 22.6 83 0.0 0 0 NO 11 17 wolkenlos ---
Emden 0 1012.3 19.8 15.7 26.0 79 0.0 0 0 O 4 8 wolkenlos ---
Bremen-Flh. 5 1012.6 22.3 19.2 27.9 67 0.0 0 --- O 12 18 --- ---
Lüchow 17 1013.9 18.4 15.0 25.6 84 0.0 0 0 NO 6 7 --- ---
Marnitz 81 1014.4 18.5 15.9 27.6 81 0.0 0 0 - 0 5 --- ---
Waren 70 1014.3 20.0 17.9 26.3 78 0.0 0 0 O 9 15 --- ---
Neuruppin 38 1014.0 20.5 19.0 27.7 75 0.0 0 0 NO 5 12 --- ---
Angermünde 56 1014.2 20.6 17.1 27.0 72 0.0 0 0 NO 3 6 --- ---
Münster/Osnabr.-Flh. 48 1011.6 21.6 19.7 29.4 65 0.0 0 0 O 6 15 heiter ---
Hannover-Flh. 59 1012.6 20.7 16.8 27.0 73 0.0 0 0 O 8 13 wolkenlos ---
Magdeburg 76 1013.3 19.1 16.6 25.5 86 0.0 0 0 O 2 6 --- ---
Potsdam 81 1013.7 19.9 18.7 26.7 94 0.0 2 0 O 12 14 --- ---
Berlin-Brandenburg-Flgh. 46 1013.6 21.6 18.3 26.4 79 0.0 1 --- N 3 4 --- ---
Berlin-Tempelhof 48 1013.6 22.6 20.2 27.7 69 0.0 0 --- S 2 6 --- ---
Berlin-Dahlem 51 1013.6 20.8 18.6 26.7 --- ---- 0 0 O 7 --- bewölkt ---
Lindenberg 91 1013.5 21.2 19.2 24.6 77 0.0 0 0 NO 5 13 --- ---
Düsseldorf-Flh. 45 1010.3 20.7 15.8 30.0 70 0.0 0 --- O 7 17 wolkenlos ---
Essen 150 1010.5 21.9 19.4 29.0 65 0.0 0 0 O 5 7 --- ---
Kahler Asten 839 ------ 16.5 15.1 22.2 82 0.0 0 --- SO 21 31 wolkenlos ---
Bad Lippspringe 157 1011.8 21.1 17.7 27.8 69 0.0 0 0 SO 18 26 wolkenlos ---
Fritzlar 174 1012.4 17.4 14.2 27.0 80 ---- 0 0 W 7 --- heiter ---
Brocken 1142 ------ 14.6 13.5 15.2 94 0.0 0 0 O 33 39 Nebel ---
Leipzig-Flh. 142 1013.3 19.5 16.5 24.8 81 0.0 0 0 O 13 17 heiter ---
Dresden-Flh. 227 1013.7 18.6 15.4 22.6 81 0.0 0 --- S 5 8 --- ---
Cottbus 69 1013.5 19.9 18.0 20.3 88 0.0 6 0 NW 2 4 --- ---
Görlitz 238 1013.4 18.6 15.0 22.2 88 0.0 0 0 W 3 6 --- ---
Aachen 231 1009.6 22.0 16.3 27.5 46 0.0 0 --- S 10 14 --- ---
Nürburg 485 ------ --- --- --- --- ---- --- --- -- --- ---   ---
Köln/Bonn-Flh. 92 1010.6 20.7 15.7 30.2 66 0.0 0 --- O 8 13 --- ---
Gießen/Wettenberg 203 1011.3 18.6 16.0 28.4 73 ---- --- 0 NO 8 10 wolkenlos ---
Wasserkuppe 921 ------ 15.7 14.2 20.0 89 0.0 0 0 SO 19 35 --- ---
Meiningen 450 1011.7 18.8 15.2 23.3 73 0.0 0 0 SO 3 5 wolkenlos ---
Erfurt 316 1012.5 18.3 15.1 23.6 80 0.0 0 --- SO 3 6 --- ---
Gera 311 1013.0 18.2 14.3 23.1 82 0.0 0 0 O 7 10 --- ---
Fichtelberg 1213 ------ 14.4 13.1 14.5 93 0.0 0 0 O 24 28 --- ---
Trier 265 1010.5 16.8 15.2 28.8 61 0.0 0 0 NO 10 23 --- ---
Hahn-Flh. 497 1010.7 18.1 16.1 26.1 70 0.0 0 --- SO 17 20 --- ---
Frankfurt/M-Flh. 112 1010.8 21.3 19.8 30.2 62 0.0 0 0 NO 9 14 heiter ---
OF-Wetterpark 119 1011.1 20.5 16.8 30.0 66 0.0 0 0 NO 4 9 wolkenlos ---
Würzburg 268 1011.8 19.4 16.7 27.1 72 0.0 0 0 O 6 10 wolkenlos ---
Bamberg 239 1011.6 19.2 13.0 25.1 78 0.0 0 0 N 4 9 wolkenlos ---
Hof 567 1012.6 17.8 13.5 21.0 81 0.0 0 0 NO 3 12 --- ---
Weiden 438 1012.3 17.3 13.5 22.9 78 0.0 0 0 NW 3 8 wolkenlos ---
Saarbrücken-Flh. 320 1010.0 19.2 16.0 27.5 55 0.0 0 --- NO 14 23 --- ---
Karlsruhe-Rheinst. 116 1010.2 19.0 12.8 29.3 52 0.0 0 0 NO 9 12 --- ---
Mannheim 96 1010.6 20.8 15.4 29.8 59 0.0 0 0 O 2 7 --- ---
Stuttgart-Flh. 371 1010.9 16.2 12.4 26.3 69 0.0 0 --- - 0 4 --- ---
Öhringen 276 1010.8 18.3 15.4 27.9 59 0.0 0 0 NO 6 11 --- ---
Nürnberg-Flh. 314 1011.3 19.7 14.2 25.3 75 0.0 0 0 O 9 12 wolkenlos ---
Regensburg 366 1011.9 16.0 14.5 24.9 87 0.0 0 0 N 3 11 wolkenlos ---
Straubing 351 1011.7 18.0 11.7 24.2 76 0.0 0 0 O 3 8 wolkenlos ---
Großer Arber 1436 ------ 13.2 11.7 14.9 84 0.0 0 --- O 14 26 Nebel ---
Lahr 155 1009.9 17.0 11.8 29.0 64 0.0 0 0 NW 3 6 --- ---
Freudenstadt 797 ------ 17.0 14.4 22.7 54 0.0 0 0 SO 13 19 --- ---
Stötten 734 1010.8 17.4 15.7 22.9 58 0.0 0 0 O 10 17 --- ---
Augsburg 462 1012.0 14.6 8.2 25.0 72 0.0 0 0 SO 3 9 wolkenlos ---
München-Flh. 444 1011.9 15.3 8.2 22.3 75 0.0 0 0 NO 3 5 wolkenlos ---
Fürstenzell 476 1011.9 17.0 13.6 23.2 77 0.0 0 0 NO 5 12 --- ---
Feldberg/Schw. 1486 ------ 14.5 13.2 16.8 47 0.0 0 0 O 20 30 --- ---
Konstanz 443 1011.1 14.2 11.3 24.6 87 0.0 0 0 NW 4 5 --- ---
Kempten 705 1011.4 13.9 8.1 21.2 73 0.0 0 0 O 6 12 --- ---
Oberstdorf 806 ------ 9.9 6.2 17.8 89 0.0 0 0 SO 3 10 --- ---
Zugspitze 2960 ------ 4.6 2.4 5.4 39 ---- --- 0 W 19 31 --- ---
Hohenpeißenberg 977 ------ 16.6 14.8 19.0 55 0.0 0 0 SO 17 30 wolkenlos ---

                                                                                                          Tabelle: 20:00 UHR

STATIONHÖHELUFTD.TEMP.T-MinT-MaxU%RR1RR12SSSDDFFFXWetter+WolkenBöen
UFS TW Ems 0 ------ --- --- --- --- ---- --- --- -- --- --- --- ---
UFS Deutsche Bucht 26 ------ --- --- --- --- ---- --- --- -- --- --- --- ---
Helgoland 4 1007.3 23.1 21.0 25.2 80 0.0 0 --- O 27 31 --- ---
List/Sylt 26 1008.6 24.1 20.8 26.3 64 0.0 0 0 O 26 40 --- ---
Schleswig 43 1009.3 23.7 20.9 25.9 64 0.0 0 0 O 15 29 --- ---
Leuchtturm Kiel 5 1009.4 22.1 20.5 22.4 78 ---- --- --- O 43 48 --- ---
Kiel 27 1009.1 23.4 21.2 26.5 63 0.0 0 0 -- --- 35 --- ---
Fehmarn 3 1009.9 21.7 21.0 24.5 78 0.0 0 0 O 24 39 --- ---
Arkona 42 1010.9 21.0 20.9 24.2 85 0.0 0 0 O 28 36 wolkenlos ---
Norderney 11 1006.5 23.5 20.6 27.9 78 0.0 0 0 O 17 27 wolkenlos ---
Leuchtt. Alte Weser 32 1006.5 26.2 21.2 27.5 64 ---- --- --- O 29 --- --- ---
Cuxhaven 5 1007.2 25.2 21.3 28.6 74 0.0 0 0 O 15 29 --- ---
Hamburg-Flh 11 1007.5 26.5 21.2 31.1 54 0.0 0 0 NO 17 31 --- ---
Schwerin 59 1008.0 27.1 19.9 32.2 47 0.0 0 0 O 15 34 wolkenlos ---
Rostock 4 1009.8 22.3 20.2 30.6 75 0.0 0 0 NO 15 26 --- ---
Greifswald 2 1010.1 22.5 21.1 25.4 80 0.0 0 0 NO 12 28 --- ---
Emden 0 1006.0 27.4 20.0 30.5 57 0.0 0 0 O 10 15 --- ---
Bremen-Flh. 5 1006.4 29.4 22.0 31.5 40 0.0 0 --- O 18 33 --- ---
Lüchow 17 1007.1 28.1 18.6 32.7 48 0.0 0 0 NO 5 18 wolkenlos ---
Marnitz 81 1008.2 27.9 18.6 31.8 39 0.0 0 0 O 13 28 --- ---
Waren 70 1008.8 25.5 20.0 31.3 53 0.0 0 0 NO 12 31 wolkenlos ---
Neuruppin 38 1007.4 29.2 20.5 32.4 35 0.0 0 0 NO 4 14 --- ---
Angermünde 56 1007.8 29.1 20.6 32.9 36 0.0 0 0 O 15 31 --- ---
Münster/Osnabr.-Flh. 48 1005.0 29.7 21.6 32.0 37 0.0 0 0 O 4 17 heiter ---
Hannover-Flh. 59 1006.2 29.8 20.6 31.8 37 0.0 0 0 O 17 30 --- ---
Magdeburg 76 1007.1 24.4 19.1 32.7 69 0.5 1 0 S 8 23 Regen ---
Potsdam 81 1006.9 27.9 20.0 32.7 35 0.0 0 0 O 12 22 --- ---
Berlin-Brandenburg-Flgh. 46 1007.1 29.7 21.5 32.3 35 0.0 0 --- NO 14 23 --- ---
Berlin-Tempelhof 48 1007.1 29.9 22.6 32.4 34 0.0 0 --- O 15 26 --- ---
Berlin-Dahlem 51 1006.9 28.7 20.8 32.4 --- ---- 0 0 O 14 --- heiter ---
Lindenberg 91 1007.8 25.5 21.3 31.7 55 0.0 0 0 O 19 37 leichter Regen ---
Düsseldorf-Flh. 45 1004.1 30.3 20.7 32.6 36 0.0 0 --- NO 10 15 --- ---
Essen 150 1004.8 25.3 21.6 31.5 60 0.7 1 0 SW 9 25 leichter Regen ---
Kahler Asten 839 ------ 22.5 16.4 25.1 54 0.0 0 --- O 13 28 --- ---
Bad Lippspringe 157 1005.4 29.0 21.2 31.3 40 0.0 0 0 SO 11 25 --- ---
Fritzlar 174 1005.0 29.0 17.4 30.6 36 ---- 0 0 O 14 --- bewölkt ---
Brocken 1142 ------ 19.5 14.5 22.2 57 0.0 0 0 O 28 36 --- ---
Leipzig-Flh. 142 1006.5 27.4 19.5 31.4 47 0.0 0 0 O 14 25 heiter ---
Dresden-Flh. 227 1007.0 25.4 18.6 29.5 54 0.0 0 --- NO 17 24 --- ---
Cottbus 69 1007.8 24.9 19.9 31.3 60 0.0 0 0 SO 10 25 Regen ---
Görlitz 238 1007.8 23.1 18.6 28.3 64 0.0 0 0 O 16 22 --- ---
Aachen 231 1003.5 28.7 21.9 32.1 33 0.0 0 0 SO 11 21 --- ---
Nürburg 485 ------ --- --- --- --- ---- --- --- -- --- ---   ---
Köln/Bonn-Flh. 92 1004.5 28.7 20.8 33.3 37 0.0 0 --- SO 8 17 --- ---
Gießen/Wettenberg 203 ------ --- --- --- --- ---- --- --- -- --- ---   ---
Wasserkuppe 921 ------ 22.4 15.8 27.4 49 0.0 0 0 SO 18 31 wolkenlos ---
Meiningen 450 1005.1 27.0 18.5 28.8 41 0.0 0 0 O 7 21 --- ---
Erfurt 316 1005.7 27.0 18.3 30.6 40 0.0 0 --- O 8 15 --- ---
Gera 311 1006.2 26.5 18.2 31.1 40 0.0 0 0 O 16 34 --- ---
Fichtelberg 1213 ------ 17.5 14.4 21.6 70 0.0 0 0 O 18 22 wolkenlos ---
Trier 265 1004.3 28.4 16.9 33.0 24 0.0 0 0 S 12 19 --- ---
Hahn-Flh. 497 1004.6 26.0 18.2 28.2 32 0.0 0 --- SO 6 14 --- ---
Frankfurt/M-Flh. 112 1004.2 29.5 21.5 33.2 34 0.0 0 0 O 2 14 heiter ---
OF-Wetterpark 119 1004.1 28.8 20.5 32.5 36 0.0 0 0 O 3 13 --- ---
Würzburg 268 1004.7 28.8 19.2 32.0 33 0.0 0 0 O 4 25 --- ---
Bamberg 239 1004.7 28.5 19.3 31.3 39 0.0 0 0 O 8 17 wolkenlos ---
Hof 567 1005.5 25.0 17.6 28.9 46 0.0 0 0 S 8 14 --- ---
Weiden 438 1005.6 25.4 17.5 28.3 44 0.0 0 0 O 9 17 --- ---
Saarbrücken-Flh. 320 1005.5 25.3 19.2 30.8 37 0.0 0 --- SW 12 24 --- ---
Karlsruhe-Rheinst. 116 1004.9 28.7 19.0 33.7 35 0.0 0 0 SW 21 34 --- ---
Mannheim 96 1004.1 30.4 20.3 33.6 23 0.0 0 0 SW 7 14 --- ---
Stuttgart-Flh. 371 1004.1 27.3 16.3 31.1 28 0.0 0 --- NO 4 5 --- ---
Öhringen 276 1004.0 29.7 18.4 32.7 26 0.0 0 0 SO 5 9 --- ---
Nürnberg-Flh. 314 1004.6 28.4 19.7 31.2 37 0.0 0 0 O 12 25 wolkenlos ---
Regensburg 366 1005.1 26.8 16.1 30.8 42 0.0 0 0 SO 5 14 wolkenlos ---
Straubing 351 1005.5 25.4 18.1 28.9 51 0.0 0 0 O 8 19 wolkenlos ---
Großer Arber 1436 ------ 14.9 13.2 18.1 83 0.0 0 --- O 11 15 wolkenlos ---
Lahr 155 1006.2 25.3 16.3 31.0 49 0.2 0 0 S 15 33 Regen ---
Freudenstadt 797 ------ 22.4 16.9 28.2 44 0.0 0 0 W 17 31 --- ---
Stötten 734 1004.3 25.1 17.1 28.2 28 0.0 0 0 O 5 12 --- ---
Augsburg 462 1004.3 26.5 14.6 29.8 34 0.0 0 0 O 8 14 --- ---
München-Flh. 444 1004.8 25.7 15.3 29.0 44 0.0 0 0 NO 5 15 wolkenlos ---
Fürstenzell 476 1005.7 23.8 17.0 26.4 53 0.0 0 0 O 8 15 wolkenlos ---
Feldberg/Schw. 1486 ------ 14.8 14.1 19.4 62 0.0 0 0 W 28 49 --- ---
Konstanz 443 1005.7 24.5 14.2 28.2 42 0.0 0 0 W 15 27 --- ---
Kempten 705 1005.4 22.8 14.0 29.0 46 0.0 0 0 SW 5 19 --- ---
Oberstdorf 806 ------ 20.3 9.9 29.1 61 0.0 0 0 S 6 13 --- ---
Zugspitze 2960 ------ 5.6 4.4 9.9 85 ---- --- --- N 3 12 --- ---

 

  • Wetterzustand
  • Windrichtung und -geschwindigkeit
  • Luftdruck
  • relative Luftfeuchtigkeit
  • Sichtweite
  • Gesamtbedeckungsgrad
  • Niederschlag
  • Sonnenscheindauer

 Höhe:     m über NN
Luftd.:   auf Meereshöhe reduzierter Luftdruck in hPa
TEMP.:   Lufttemperatur in Grad Celsius
T-MIN:   Minimumtemperatur der Luft in 2m Höhe in Grad Celsius, von 18 UTC Vortag bis 06 UTC heute
T-MAX:  Maximumtemperatur der Luft in 2m Höhe in Grad Celsius, von 18 UTC Vortag bis 06 UTC heute
RR1:     Niederschlagsmenge, einstündig, mm ist gleich Liter pro
RR12:   Niederschlagsmenge, 12 stündig, 18 UTC Vortag bis 06 UTC heute in mm ist gleich Liter pro
SSS:     Gesamtschneehöhe
DD:      Windrichtung
FF:       Windgeschwindigkeit letztes 10-Minutenmittel in km/h
FX:       höchste Windspitze während der letzten Stunde in km/h
---:      Wert nicht vorhanden

 

2009-2022

Unwetterwarnungen

Unwetterwarnungen

  Überblick über die aktuelle Warnlage in Deutschland

  Radarbild           

aktueller Radarfilm Deutschland

Mecklenburg Vorpommern/

Brandenburg

aktuelles Wetter und aktuelle Temperatur Region Nordost

Waldbrandgefahr   

Deutschlandkarte mit dem Tageswert des Waldbrand-Gefahrenindex WBI, heute